sensor_id;sensor_type;location;lat;lon;timestamp;temperature;humidity
16032;DHT22;8120;48.308;8.914;2023-09-19T00:00:44;14.40;90.00
16032;DHT22;8120;48.308;8.914;2023-09-19T00:03:14;14.40;90.00
16032;DHT22;8120;48.308;8.914;2023-09-19T00:05:42;14.40;89.90
16032;DHT22;8120;48.308;8.914;2023-09-19T00:08:12;14.40;90.30
16032;DHT22;8120;48.308;8.914;2023-09-19T00:10:41;14.40;90.40
16032;DHT22;8120;48.308;8.914;2023-09-19T00:13:10;14.40;90.00
16032;DHT22;8120;48.308;8.914;2023-09-19T00:15:44;14.50;88.10
16032;DHT22;8120;48.308;8.914;2023-09-19T00:18:16;14.50;87.90
16032;DHT22;8120;48.308;8.914;2023-09-19T00:20:45;14.50;87.90
16032;DHT22;8120;48.308;8.914;2023-09-19T00:23:14;14.50;88.10
16032;DHT22;8120;48.308;8.914;2023-09-19T00:25:43;14.50;88.30
16032;DHT22;8120;48.308;8.914;2023-09-19T00:28:12;14.50;88.30
16032;DHT22;8120;48.308;8.914;2023-09-19T00:30:45;14.40;89.00
16032;DHT22;8120;48.308;8.914;2023-09-19T00:33:17;14.40;89.50
16032;DHT22;8120;48.308;8.914;2023-09-19T00:35:49;14.40;89.80
16032;DHT22;8120;48.308;8.914;2023-09-19T00:38:17;14.40;90.20
16032;DHT22;8120;48.308;8.914;2023-09-19T00:40:48;14.40;90.00
16032;DHT22;8120;48.308;8.914;2023-09-19T00:43:17;14.40;89.40
16032;DHT22;8120;48.308;8.914;2023-09-19T00:45:48;14.40;89.90
16032;DHT22;8120;48.308;8.914;2023-09-19T00:48:19;14.30;90.20
16032;DHT22;8120;48.308;8.914;2023-09-19T00:50:48;14.30;90.50
16032;DHT22;8120;48.308;8.914;2023-09-19T00:53:19;14.30;90.40
16032;DHT22;8120;48.308;8.914;2023-09-19T00:55:48;14.40;90.00
16032;DHT22;8120;48.308;8.914;2023-09-19T00:58:17;14.40;89.80
16032;DHT22;8120;48.308;8.914;2023-09-19T01:00:48;14.40;89.80
16032;DHT22;8120;48.308;8.914;2023-09-19T01:03:17;14.40;89.70
16032;DHT22;8120;48.308;8.914;2023-09-19T01:05:45;14.40;89.90
16032;DHT22;8120;48.308;8.914;2023-09-19T01:08:13;14.30;90.10
16032;DHT22;8120;48.308;8.914;2023-09-19T01:10:46;14.30;90.00
16032;DHT22;8120;48.308;8.914;2023-09-19T01:13:26;14.30;90.10
16032;DHT22;8120;48.308;8.914;2023-09-19T01:16:04;14.30;90.60
16032;DHT22;8120;48.308;8.914;2023-09-19T01:18:40;14.20;91.30
16032;DHT22;8120;48.308;8.914;2023-09-19T01:21:17;14.20;91.80
16032;DHT22;8120;48.308;8.914;2023-09-19T01:24:22;14.30;90.80
16032;DHT22;8120;48.308;8.914;2023-09-19T01:27:17;14.50;89.30
16032;DHT22;8120;48.308;8.914;2023-09-19T01:29:50;14.50;89.40
16032;DHT22;8120;48.308;8.914;2023-09-19T01:32:21;14.50;89.70
16032;DHT22;8120;48.308;8.914;2023-09-19T01:34:52;14.40;89.70
16032;DHT22;8120;48.308;8.914;2023-09-19T01:37:21;14.50;88.70
16032;DHT22;8120;48.308;8.914;2023-09-19T01:39:55;14.60;88.20
16032;DHT22;8120;48.308;8.914;2023-09-19T01:42:31;14.60;88.40
16032;DHT22;8120;48.308;8.914;2023-09-19T01:45:07;14.50;88.30
16032;DHT22;8120;48.308;8.914;2023-09-19T01:47:42;14.50;88.50
16032;DHT22;8120;48.308;8.914;2023-09-19T01:50:20;14.50;88.80
16032;DHT22;8120;48.308;8.914;2023-09-19T01:52:57;14.40;89.20
16032;DHT22;8120;48.308;8.914;2023-09-19T01:55:29;14.30;89.70
16032;DHT22;8120;48.308;8.914;2023-09-19T01:58:01;14.30;90.10
16032;DHT22;8120;48.308;8.914;2023-09-19T02:00:33;14.20;90.50
16032;DHT22;8120;48.308;8.914;2023-09-19T02:03:05;14.20;90.10
16032;DHT22;8120;48.308;8.914;2023-09-19T02:05:33;14.10;90.30
16032;DHT22;8120;48.308;8.914;2023-09-19T02:08:01;14.00;90.40
16032;DHT22;8120;48.308;8.914;2023-09-19T02:10:29;14.00;90.80
16032;DHT22;8120;48.308;8.914;2023-09-19T02:12:57;14.00;90.90
16032;DHT22;8120;48.308;8.914;2023-09-19T02:15:25;14.00;90.90
16032;DHT22;8120;48.308;8.914;2023-09-19T02:17:53;14.00;90.60
16032;DHT22;8120;48.308;8.914;2023-09-19T02:20:24;13.90;90.80
16032;DHT22;8120;48.308;8.914;2023-09-19T02:22:53;13.90;91.00
16032;DHT22;8120;48.308;8.914;2023-09-19T02:25:21;13.90;91.00
16032;DHT22;8120;48.308;8.914;2023-09-19T02:27:49;14.00;90.70
16032;DHT22;8120;48.308;8.914;2023-09-19T02:30:20;14.00;90.60
16032;DHT22;8120;48.308;8.914;2023-09-19T02:32:52;14.00;90.60
16032;DHT22;8120;48.308;8.914;2023-09-19T02:35:20;14.00;90.60
16032;DHT22;8120;48.308;8.914;2023-09-19T02:37:50;14.10;90.30
16032;DHT22;8120;48.308;8.914;2023-09-19T02:40:18;14.10;89.90
16032;DHT22;8120;48.308;8.914;2023-09-19T02:42:46;14.10;89.90
16032;DHT22;8120;48.308;8.914;2023-09-19T02:45:16;14.10;89.80
16032;DHT22;8120;48.308;8.914;2023-09-19T02:47:45;14.20;89.40
16032;DHT22;8120;48.308;8.914;2023-09-19T02:50:14;14.10;89.50
16032;DHT22;8120;48.308;8.914;2023-09-19T02:52:44;14.20;89.30
16032;DHT22;8120;48.308;8.914;2023-09-19T02:55:14;14.20;89.10
16032;DHT22;8120;48.308;8.914;2023-09-19T02:57:46;14.20;89.00
16032;DHT22;8120;48.308;8.914;2023-09-19T03:00:15;14.30;88.70
16032;DHT22;8120;48.308;8.914;2023-09-19T03:02:43;14.30;88.50
16032;DHT22;8120;48.308;8.914;2023-09-19T03:05:11;14.30;88.40
16032;DHT22;8120;48.308;8.914;2023-09-19T03:07:39;14.30;88.30
16032;DHT22;8120;48.308;8.914;2023-09-19T03:10:10;14.40;88.00
16032;DHT22;8120;48.308;8.914;2023-09-19T03:12:39;14.30;88.30
16032;DHT22;8120;48.308;8.914;2023-09-19T03:15:07;14.30;88.20
16032;DHT22;8120;48.308;8.914;2023-09-19T03:17:36;14.30;88.00
16032;DHT22;8120;48.308;8.914;2023-09-19T03:20:05;14.20;88.00
16032;DHT22;8120;48.308;8.914;2023-09-19T03:22:35;14.20;88.20
16032;DHT22;8120;48.308;8.914;2023-09-19T03:25:04;14.20;88.00
16032;DHT22;8120;48.308;8.914;2023-09-19T03:27:34;14.30;87.40
16032;DHT22;8120;48.308;8.914;2023-09-19T03:30:05;14.40;86.50
16032;DHT22;8120;48.308;8.914;2023-09-19T03:32:35;14.40;86.70
16032;DHT22;8120;48.308;8.914;2023-09-19T03:35:04;14.30;87.20
16032;DHT22;8120;48.308;8.914;2023-09-19T03:37:32;14.30;87.70
16032;DHT22;8120;48.308;8.914;2023-09-19T03:40:01;14.40;87.30
16032;DHT22;8120;48.308;8.914;2023-09-19T03:42:32;14.40;87.30
16032;DHT22;8120;48.308;8.914;2023-09-19T03:45:05;14.50;86.00
16032;DHT22;8120;48.308;8.914;2023-09-19T03:47:33;14.50;86.40
16032;DHT22;8120;48.308;8.914;2023-09-19T03:50:01;14.50;86.10
16032;DHT22;8120;48.308;8.914;2023-09-19T03:52:29;14.50;86.40
16032;DHT22;8120;48.308;8.914;2023-09-19T03:54:57;14.50;86.90
16032;DHT22;8120;48.308;8.914;2023-09-19T03:57:25;14.40;88.00
16032;DHT22;8120;48.308;8.914;2023-09-19T03:59:54;14.30;89.70
16032;DHT22;8120;48.308;8.914;2023-09-19T04:02:23;14.20;90.50
16032;DHT22;8120;48.308;8.914;2023-09-19T04:04:52;14.10;91.40
16032;DHT22;8120;48.308;8.914;2023-09-19T04:07:20;14.00;92.40
16032;DHT22;8120;48.308;8.914;2023-09-19T04:09:49;14.00;92.80
16032;DHT22;8120;48.308;8.914;2023-09-19T04:12:19;14.00;93.30
16032;DHT22;8120;48.308;8.914;2023-09-19T04:14:47;14.00;93.20
16032;DHT22;8120;48.308;8.914;2023-09-19T04:17:15;14.00;92.60
16032;DHT22;8120;48.308;8.914;2023-09-19T04:19:45;13.90;92.80
16032;DHT22;8120;48.308;8.914;2023-09-19T04:22:13;13.90;92.70
16032;DHT22;8120;48.308;8.914;2023-09-19T04:24:41;13.90;92.00
16032;DHT22;8120;48.308;8.914;2023-09-19T04:27:09;13.90;92.10
16032;DHT22;8120;48.308;8.914;2023-09-19T04:29:39;13.80;91.70
16032;DHT22;8120;48.308;8.914;2023-09-19T04:32:08;13.70;91.80
16032;DHT22;8120;48.308;8.914;2023-09-19T04:34:36;13.70;92.00
16032;DHT22;8120;48.308;8.914;2023-09-19T04:37:06;13.60;92.00
16032;DHT22;8120;48.308;8.914;2023-09-19T04:39:34;13.60;92.10
16032;DHT22;8120;48.308;8.914;2023-09-19T04:42:02;13.50;92.20
16032;DHT22;8120;48.308;8.914;2023-09-19T04:44:31;13.50;92.20
16032;DHT22;8120;48.308;8.914;2023-09-19T04:46:58;13.40;92.30
16032;DHT22;8120;48.308;8.914;2023-09-19T04:49:27;13.50;91.90
16032;DHT22;8120;48.308;8.914;2023-09-19T04:51:55;13.40;91.70
16032;DHT22;8120;48.308;8.914;2023-09-19T04:54:24;13.30;92.50
16032;DHT22;8120;48.308;8.914;2023-09-19T04:56:53;13.30;92.60
16032;DHT22;8120;48.308;8.914;2023-09-19T04:59:21;13.30;92.20
16032;DHT22;8120;48.308;8.914;2023-09-19T05:01:50;13.40;91.70
16032;DHT22;8120;48.308;8.914;2023-09-19T05:04:18;13.40;91.20
16032;DHT22;8120;48.308;8.914;2023-09-19T05:06:46;13.50;90.80
16032;DHT22;8120;48.308;8.914;2023-09-19T05:09:14;13.60;90.50
16032;DHT22;8120;48.308;8.914;2023-09-19T05:11:44;13.60;89.90
16032;DHT22;8120;48.308;8.914;2023-09-19T05:14:13;13.70;89.50
16032;DHT22;8120;48.308;8.914;2023-09-19T05:16:40;13.70;89.40
16032;DHT22;8120;48.308;8.914;2023-09-19T05:19:09;13.70;89.60
16032;DHT22;8120;48.308;8.914;2023-09-19T05:21:38;13.70;89.60
16032;DHT22;8120;48.308;8.914;2023-09-19T05:24:06;13.70;89.70
16032;DHT22;8120;48.308;8.914;2023-09-19T05:26:37;13.80;89.50
16032;DHT22;8120;48.308;8.914;2023-09-19T05:29:06;13.80;89.50
16032;DHT22;8120;48.308;8.914;2023-09-19T05:31:35;13.90;88.60
16032;DHT22;8120;48.308;8.914;2023-09-19T05:34:07;14.10;88.10
16032;DHT22;8120;48.308;8.914;2023-09-19T05:36:36;14.20;88.10
16032;DHT22;8120;48.308;8.914;2023-09-19T05:39:06;14.30;87.30
16032;DHT22;8120;48.308;8.914;2023-09-19T05:41:36;14.50;86.30
16032;DHT22;8120;48.308;8.914;2023-09-19T05:44:08;14.80;85.80
16032;DHT22;8120;48.308;8.914;2023-09-19T05:46:36;14.90;85.00
16032;DHT22;8120;48.308;8.914;2023-09-19T05:49:04;15.00;85.10
16032;DHT22;8120;48.308;8.914;2023-09-19T05:51:32;14.80;85.90
16032;DHT22;8120;48.308;8.914;2023-09-19T05:53:59;14.60;86.40
16032;DHT22;8120;48.308;8.914;2023-09-19T05:56:27;14.60;86.90
16032;DHT22;8120;48.308;8.914;2023-09-19T05:58:55;14.60;87.40
16032;DHT22;8120;48.308;8.914;2023-09-19T06:01:24;14.60;87.00
16032;DHT22;8120;48.308;8.914;2023-09-19T06:03:53;14.60;86.90
16032;DHT22;8120;48.308;8.914;2023-09-19T06:06:21;14.60;86.30
16032;DHT22;8120;48.308;8.914;2023-09-19T06:08:50;14.70;86.50
16032;DHT22;8120;48.308;8.914;2023-09-19T06:11:19;14.70;86.30
16032;DHT22;8120;48.308;8.914;2023-09-19T06:13:47;14.80;86.10
16032;DHT22;8120;48.308;8.914;2023-09-19T06:16:15;14.70;87.50
16032;DHT22;8120;48.308;8.914;2023-09-19T06:18:48;14.60;89.20
16032;DHT22;8120;48.308;8.914;2023-09-19T06:21:16;14.30;90.80
16032;DHT22;8120;48.308;8.914;2023-09-19T06:23:44;14.20;92.60
16032;DHT22;8120;48.308;8.914;2023-09-19T06:26:12;14.10;93.30
16032;DHT22;8120;48.308;8.914;2023-09-19T06:28:40;14.00;94.00
16032;DHT22;8120;48.308;8.914;2023-09-19T06:31:09;14.20;95.20
16032;DHT22;8120;48.308;8.914;2023-09-19T06:33:38;14.20;94.40
16032;DHT22;8120;48.308;8.914;2023-09-19T06:36:08;14.30;94.20
16032;DHT22;8120;48.308;8.914;2023-09-19T06:38:36;14.40;92.90
16032;DHT22;8120;48.308;8.914;2023-09-19T06:41:05;14.50;92.60
16032;DHT22;8120;48.308;8.914;2023-09-19T06:43:34;14.70;92.30
16032;DHT22;8120;48.308;8.914;2023-09-19T06:46:02;14.70;92.30
16032;DHT22;8120;48.308;8.914;2023-09-19T06:48:30;14.90;92.10
16032;DHT22;8120;48.308;8.914;2023-09-19T06:51:00;15.10;91.60
16032;DHT22;8120;48.308;8.914;2023-09-19T06:53:32;15.30;90.70
16032;DHT22;8120;48.308;8.914;2023-09-19T06:56:01;15.30;89.40
16032;DHT22;8120;48.308;8.914;2023-09-19T06:58:30;15.20;89.00
16032;DHT22;8120;48.308;8.914;2023-09-19T07:00:58;15.20;89.30
16032;DHT22;8120;48.308;8.914;2023-09-19T07:03:26;15.20;89.70
16032;DHT22;8120;48.308;8.914;2023-09-19T07:05:56;15.10;89.50
16032;DHT22;8120;48.308;8.914;2023-09-19T07:08:25;15.30;90.10
16032;DHT22;8120;48.308;8.914;2023-09-19T07:10:56;15.40;88.60
16032;DHT22;8120;48.308;8.914;2023-09-19T07:13:24;15.50;88.00
16032;DHT22;8120;48.308;8.914;2023-09-19T07:15:52;15.50;88.20
16032;DHT22;8120;48.308;8.914;2023-09-19T07:18:21;15.50;87.80
16032;DHT22;8120;48.308;8.914;2023-09-19T07:20:49;15.60;87.40
16032;DHT22;8120;48.308;8.914;2023-09-19T07:23:17;15.80;87.80
16032;DHT22;8120;48.308;8.914;2023-09-19T07:25:47;15.90;86.90
16032;DHT22;8120;48.308;8.914;2023-09-19T07:28:17;15.90;87.10
16032;DHT22;8120;48.308;8.914;2023-09-19T07:30:45;15.50;88.80
16032;DHT22;8120;48.308;8.914;2023-09-19T07:33:13;15.40;90.30
16032;DHT22;8120;48.308;8.914;2023-09-19T07:35:45;15.30;90.10
16032;DHT22;8120;48.308;8.914;2023-09-19T07:38:13;15.20;90.60
16032;DHT22;8120;48.308;8.914;2023-09-19T07:40:41;15.20;91.10
16032;DHT22;8120;48.308;8.914;2023-09-19T07:43:10;15.20;89.90
16032;DHT22;8120;48.308;8.914;2023-09-19T07:45:39;15.00;89.60
16032;DHT22;8120;48.308;8.914;2023-09-19T07:48:08;14.70;85.70
16032;DHT22;8120;48.308;8.914;2023-09-19T07:50:41;14.40;86.80
16032;DHT22;8120;48.308;8.914;2023-09-19T07:53:10;14.20;85.40
16032;DHT22;8120;48.308;8.914;2023-09-19T07:55:40;14.00;85.70
16032;DHT22;8120;48.308;8.914;2023-09-19T07:58:09;13.90;87.70
16032;DHT22;8120;48.308;8.914;2023-09-19T08:00:37;14.00;86.80
16032;DHT22;8120;48.308;8.914;2023-09-19T08:03:06;13.80;88.00
16032;DHT22;8120;48.308;8.914;2023-09-19T08:05:44;13.70;88.20
16032;DHT22;8120;48.308;8.914;2023-09-19T08:08:13;13.70;88.40
16032;DHT22;8120;48.308;8.914;2023-09-19T08:10:41;13.80;88.80
16032;DHT22;8120;48.308;8.914;2023-09-19T08:13:12;13.80;89.10
16032;DHT22;8120;48.308;8.914;2023-09-19T08:15:43;13.90;89.30
16032;DHT22;8120;48.308;8.914;2023-09-19T08:18:13;13.90;88.60
16032;DHT22;8120;48.308;8.914;2023-09-19T08:20:42;14.10;87.80
16032;DHT22;8120;48.308;8.914;2023-09-19T08:23:13;14.00;88.60
16032;DHT22;8120;48.308;8.914;2023-09-19T08:25:41;14.10;89.30
16032;DHT22;8120;48.308;8.914;2023-09-19T08:28:09;14.30;88.20
16032;DHT22;8120;48.308;8.914;2023-09-19T08:30:39;14.40;87.90
16032;DHT22;8120;48.308;8.914;2023-09-19T08:33:08;14.50;88.00
16032;DHT22;8120;48.308;8.914;2023-09-19T08:35:37;14.80;86.60
16032;DHT22;8120;48.308;8.914;2023-09-19T08:38:06;14.80;86.40
16032;DHT22;8120;48.308;8.914;2023-09-19T08:40:37;15.30;86.40
16032;DHT22;8120;48.308;8.914;2023-09-19T08:43:06;15.80;83.30
16032;DHT22;8120;48.308;8.914;2023-09-19T08:45:35;16.30;80.90
16032;DHT22;8120;48.308;8.914;2023-09-19T08:48:21;16.80;80.20
16032;DHT22;8120;48.308;8.914;2023-09-19T08:51:00;17.20;78.00
16032;DHT22;8120;48.308;8.914;2023-09-19T08:53:35;17.30;76.50
16032;DHT22;8120;48.308;8.914;2023-09-19T08:56:10;17.40;77.40
16032;DHT22;8120;48.308;8.914;2023-09-19T08:58:44;17.50;76.20
16032;DHT22;8120;48.308;8.914;2023-09-19T09:01:15;17.60;74.50
16032;DHT22;8120;48.308;8.914;2023-09-19T09:03:45;17.70;76.10
16032;DHT22;8120;48.308;8.914;2023-09-19T09:06:17;18.30;74.80
16032;DHT22;8120;48.308;8.914;2023-09-19T09:08:47;18.30;73.50
16032;DHT22;8120;48.308;8.914;2023-09-19T09:11:15;17.70;75.50
16032;DHT22;8120;48.308;8.914;2023-09-19T09:13:44;18.30;74.00
16032;DHT22;8120;48.308;8.914;2023-09-19T09:16:13;18.30;71.40
16032;DHT22;8120;48.308;8.914;2023-09-19T09:18:45;18.30;72.80
16032;DHT22;8120;48.308;8.914;2023-09-19T09:21:13;18.60;73.50
16032;DHT22;8120;48.308;8.914;2023-09-19T09:23:43;18.70;69.00
16032;DHT22;8120;48.308;8.914;2023-09-19T09:26:12;18.40;68.80
16032;DHT22;8120;48.308;8.914;2023-09-19T09:28:45;18.70;68.10
16032;DHT22;8120;48.308;8.914;2023-09-19T09:31:22;18.40;67.50
16032;DHT22;8120;48.308;8.914;2023-09-19T09:33:54;18.10;69.00
16032;DHT22;8120;48.308;8.914;2023-09-19T09:36:34;17.90;69.40
16032;DHT22;8120;48.308;8.914;2023-09-19T09:39:04;18.00;68.20
16032;DHT22;8120;48.308;8.914;2023-09-19T09:41:45;17.90;68.50
16032;DHT22;8120;48.308;8.914;2023-09-19T09:44:14;17.60;69.40
16032;DHT22;8120;48.308;8.914;2023-09-19T09:46:44;17.80;69.20
16032;DHT22;8120;48.308;8.914;2023-09-19T09:49:32;18.70;67.10
16032;DHT22;8120;48.308;8.914;2023-09-19T09:52:03;18.50;66.70
16032;DHT22;8120;48.308;8.914;2023-09-19T09:54:58;18.30;67.10
16032;DHT22;8120;48.308;8.914;2023-09-19T09:57:26;18.30;66.90
16032;DHT22;8120;48.308;8.914;2023-09-19T09:59:55;18.10;66.20
16032;DHT22;8120;48.308;8.914;2023-09-19T10:02:26;18.20;65.70
16032;DHT22;8120;48.308;8.914;2023-09-19T10:05:11;17.80;67.60
16032;DHT22;8120;48.308;8.914;2023-09-19T10:07:47;18.10;67.00
16032;DHT22;8120;48.308;8.914;2023-09-19T10:10:31;18.50;66.70
16032;DHT22;8120;48.308;8.914;2023-09-19T10:13:12;18.80;64.80
16032;DHT22;8120;48.308;8.914;2023-09-19T10:15:44;18.80;65.10
16032;DHT22;8120;48.308;8.914;2023-09-19T10:18:14;18.80;64.50
16032;DHT22;8120;48.308;8.914;2023-09-19T10:20:45;18.90;65.10
16032;DHT22;8120;48.308;8.914;2023-09-19T10:23:14;18.90;64.20
16032;DHT22;8120;48.308;8.914;2023-09-19T10:25:50;19.30;64.00
16032;DHT22;8120;48.308;8.914;2023-09-19T10:28:20;20.00;61.90
16032;DHT22;8120;48.308;8.914;2023-09-19T10:30:50;20.30;61.10
16032;DHT22;8120;48.308;8.914;2023-09-19T10:33:21;20.30;62.20
16032;DHT22;8120;48.308;8.914;2023-09-19T10:35:53;20.00;58.80
16032;DHT22;8120;48.308;8.914;2023-09-19T10:38:25;20.00;60.10
16032;DHT22;8120;48.308;8.914;2023-09-19T10:40:55;20.20;59.90
16032;DHT22;8120;48.308;8.914;2023-09-19T10:43:30;19.90;60.30
16032;DHT22;8120;48.308;8.914;2023-09-19T10:46:05;19.80;61.00
16032;DHT22;8120;48.308;8.914;2023-09-19T10:48:36;19.20;61.60
16032;DHT22;8120;48.308;8.914;2023-09-19T10:51:08;19.20;62.00
16032;DHT22;8120;48.308;8.914;2023-09-19T10:53:43;19.00;62.50
16032;DHT22;8120;48.308;8.914;2023-09-19T10:56:19;18.40;62.00
16032;DHT22;8120;48.308;8.914;2023-09-19T10:58:49;18.20;63.70
16032;DHT22;8120;48.308;8.914;2023-09-19T11:01:18;18.40;62.70
16032;DHT22;8120;48.308;8.914;2023-09-19T11:03:47;18.90;62.80
16032;DHT22;8120;48.308;8.914;2023-09-19T11:06:20;19.20;60.80
16032;DHT22;8120;48.308;8.914;2023-09-19T11:08:56;19.70;60.50
16032;DHT22;8120;48.308;8.914;2023-09-19T11:11:44;20.10;58.60
16032;DHT22;8120;48.308;8.914;2023-09-19T11:14:30;20.30;57.70
16032;DHT22;8120;48.308;8.914;2023-09-19T11:20:19;20.30;57.70
16032;DHT22;8120;48.308;8.914;2023-09-19T11:23:17;20.10;57.00
16032;DHT22;8120;48.308;8.914;2023-09-19T11:25:50;19.90;58.10
16032;DHT22;8120;48.308;8.914;2023-09-19T11:28:34;20.20;58.20
16032;DHT22;8120;48.308;8.914;2023-09-19T11:34:49;19.90;57.00
16032;DHT22;8120;48.308;8.914;2023-09-19T11:40:37;19.50;59.00
16032;DHT22;8120;48.308;8.914;2023-09-19T11:43:28;19.60;57.90
16032;DHT22;8120;48.308;8.914;2023-09-19T11:46:08;19.70;58.20
16032;DHT22;8120;48.308;8.914;2023-09-19T11:48:40;19.20;55.90
16032;DHT22;8120;48.308;8.914;2023-09-19T11:51:15;19.10;55.80
16032;DHT22;8120;48.308;8.914;2023-09-19T11:53:49;19.10;56.10
16032;DHT22;8120;48.308;8.914;2023-09-19T11:56:20;19.40;56.40
16032;DHT22;8120;48.308;8.914;2023-09-19T11:58:50;19.70;56.00
16032;DHT22;8120;48.308;8.914;2023-09-19T12:01:32;19.80;55.60
16032;DHT22;8120;48.308;8.914;2023-09-19T12:04:02;19.70;55.80
16032;DHT22;8120;48.308;8.914;2023-09-19T12:06:32;20.20;54.80
16032;DHT22;8120;48.308;8.914;2023-09-19T12:09:00;20.70;55.00
16032;DHT22;8120;48.308;8.914;2023-09-19T12:11:33;20.70;54.30
16032;DHT22;8120;48.308;8.914;2023-09-19T12:14:09;20.20;55.10
16032;DHT22;8120;48.308;8.914;2023-09-19T12:16:39;20.40;53.90
16032;DHT22;8120;48.308;8.914;2023-09-19T12:19:20;20.30;51.20
16032;DHT22;8120;48.308;8.914;2023-09-19T12:21:59;20.00;53.60
16032;DHT22;8120;48.308;8.914;2023-09-19T12:24:31;20.00;53.10
16032;DHT22;8120;48.308;8.914;2023-09-19T12:27:03;19.90;53.70
16032;DHT22;8120;48.308;8.914;2023-09-19T12:29:43;20.10;52.90
16032;DHT22;8120;48.308;8.914;2023-09-19T12:32:12;20.10;52.70
16032;DHT22;8120;48.308;8.914;2023-09-19T12:34:50;20.70;52.80
16032;DHT22;8120;48.308;8.914;2023-09-19T12:37:20;20.80;52.00
16032;DHT22;8120;48.308;8.914;2023-09-19T12:39:49;20.70;52.80
16032;DHT22;8120;48.308;8.914;2023-09-19T12:42:21;20.90;53.10
16032;DHT22;8120;48.308;8.914;2023-09-19T12:44:51;21.20;53.60
16032;DHT22;8120;48.308;8.914;2023-09-19T12:47:24;21.10;51.80
16032;DHT22;8120;48.308;8.914;2023-09-19T12:50:08;21.10;51.30
16032;DHT22;8120;48.308;8.914;2023-09-19T12:52:42;21.00;51.70
16032;DHT22;8120;48.308;8.914;2023-09-19T12:55:22;20.90;51.70
16032;DHT22;8120;48.308;8.914;2023-09-19T12:58:03;20.90;51.40
16032;DHT22;8120;48.308;8.914;2023-09-19T13:00:37;21.30;51.30
16032;DHT22;8120;48.308;8.914;2023-09-19T13:03:15;21.30;50.60
16032;DHT22;8120;48.308;8.914;2023-09-19T13:05:53;21.50;51.20
16032;DHT22;8120;48.308;8.914;2023-09-19T13:08:24;21.40;51.30
16032;DHT22;8120;48.308;8.914;2023-09-19T13:11:06;21.40;51.90
16032;DHT22;8120;48.308;8.914;2023-09-19T13:13:37;21.80;50.10
16032;DHT22;8120;48.308;8.914;2023-09-19T13:16:06;21.60;49.70
16032;DHT22;8120;48.308;8.914;2023-09-19T13:18:44;21.40;49.70
16032;DHT22;8120;48.308;8.914;2023-09-19T13:21:13;21.50;50.40
16032;DHT22;8120;48.308;8.914;2023-09-19T13:23:51;21.30;48.60
16032;DHT22;8120;48.308;8.914;2023-09-19T13:26:19;21.40;49.50
16032;DHT22;8120;48.308;8.914;2023-09-19T13:28:47;21.70;49.50
16032;DHT22;8120;48.308;8.914;2023-09-19T13:31:16;21.40;48.70
16032;DHT22;8120;48.308;8.914;2023-09-19T13:33:48;21.40;50.30
16032;DHT22;8120;48.308;8.914;2023-09-19T13:36:17;21.60;49.40
16032;DHT22;8120;48.308;8.914;2023-09-19T13:38:45;21.50;47.80
16032;DHT22;8120;48.308;8.914;2023-09-19T13:41:15;21.20;47.70
16032;DHT22;8120;48.308;8.914;2023-09-19T13:43:43;20.90;49.10
16032;DHT22;8120;48.308;8.914;2023-09-19T13:46:15;20.90;48.00
16032;DHT22;8120;48.308;8.914;2023-09-19T13:48:46;21.00;49.30
16032;DHT22;8120;48.308;8.914;2023-09-19T13:51:14;21.10;50.80
16032;DHT22;8120;48.308;8.914;2023-09-19T13:53:42;21.30;49.60
16032;DHT22;8120;48.308;8.914;2023-09-19T13:56:10;21.10;50.10
16032;DHT22;8120;48.308;8.914;2023-09-19T13:58:38;21.10;51.20
16032;DHT22;8120;48.308;8.914;2023-09-19T14:01:09;21.10;52.50
16032;DHT22;8120;48.308;8.914;2023-09-19T14:03:39;21.10;51.60
16032;DHT22;8120;48.308;8.914;2023-09-19T14:06:09;21.20;51.60
16032;DHT22;8120;48.308;8.914;2023-09-19T14:08:37;21.10;50.70
16032;DHT22;8120;48.308;8.914;2023-09-19T14:11:06;20.90;51.70
16032;DHT22;8120;48.308;8.914;2023-09-19T14:13:34;20.90;52.20
16032;DHT22;8120;48.308;8.914;2023-09-19T14:16:03;21.10;52.00
16032;DHT22;8120;48.308;8.914;2023-09-19T14:18:32;21.10;51.10
16032;DHT22;8120;48.308;8.914;2023-09-19T14:21:03;21.10;50.20
16032;DHT22;8120;48.308;8.914;2023-09-19T14:23:35;21.00;51.60
16032;DHT22;8120;48.308;8.914;2023-09-19T14:26:04;20.90;51.60
16032;DHT22;8120;48.308;8.914;2023-09-19T14:28:33;21.10;50.70
16032;DHT22;8120;48.308;8.914;2023-09-19T14:31:04;21.20;49.10
16032;DHT22;8120;48.308;8.914;2023-09-19T14:33:33;21.20;49.90
16032;DHT22;8120;48.308;8.914;2023-09-19T14:36:04;21.10;50.80
16032;DHT22;8120;48.308;8.914;2023-09-19T14:38:33;21.30;52.00
16032;DHT22;8120;48.308;8.914;2023-09-19T14:41:04;21.30;48.40
16032;DHT22;8120;48.308;8.914;2023-09-19T14:43:32;21.10;48.50
16032;DHT22;8120;48.308;8.914;2023-09-19T14:46:03;21.20;48.80
16032;DHT22;8120;48.308;8.914;2023-09-19T14:48:31;21.30;48.10
16032;DHT22;8120;48.308;8.914;2023-09-19T14:51:02;21.20;49.90
16032;DHT22;8120;48.308;8.914;2023-09-19T14:53:30;21.40;48.80
16032;DHT22;8120;48.308;8.914;2023-09-19T14:56:00;21.30;49.70
16032;DHT22;8120;48.308;8.914;2023-09-19T14:58:31;21.10;50.40
16032;DHT22;8120;48.308;8.914;2023-09-19T15:01:04;21.20;49.40
16032;DHT22;8120;48.308;8.914;2023-09-19T15:03:33;21.00;46.80
16032;DHT22;8120;48.308;8.914;2023-09-19T15:06:02;20.90;47.70
16032;DHT22;8120;48.308;8.914;2023-09-19T15:08:31;21.00;48.30
16032;DHT22;8120;48.308;8.914;2023-09-19T15:11:01;21.10;48.30
16032;DHT22;8120;48.308;8.914;2023-09-19T15:13:32;21.10;48.10
16032;DHT22;8120;48.308;8.914;2023-09-19T15:16:00;21.00;49.00
16032;DHT22;8120;48.308;8.914;2023-09-19T15:18:28;20.90;48.40
16032;DHT22;8120;48.308;8.914;2023-09-19T15:21:00;20.90;49.50
16032;DHT22;8120;48.308;8.914;2023-09-19T15:23:29;20.90;50.20
16032;DHT22;8120;48.308;8.914;2023-09-19T15:25:58;20.80;49.50
16032;DHT22;8120;48.308;8.914;2023-09-19T15:28:26;20.80;50.10
16032;DHT22;8120;48.308;8.914;2023-09-19T15:30:59;20.70;49.90
16032;DHT22;8120;48.308;8.914;2023-09-19T15:33:29;20.60;49.80
16032;DHT22;8120;48.308;8.914;2023-09-19T15:36:01;20.50;49.80
16032;DHT22;8120;48.308;8.914;2023-09-19T15:38:30;20.40;49.60
16032;DHT22;8120;48.308;8.914;2023-09-19T15:40:59;20.30;50.30
16032;DHT22;8120;48.308;8.914;2023-09-19T15:43:27;20.20;50.50
16032;DHT22;8120;48.308;8.914;2023-09-19T15:46:02;20.20;51.10
16032;DHT22;8120;48.308;8.914;2023-09-19T15:48:30;20.20;50.50
16032;DHT22;8120;48.308;8.914;2023-09-19T15:51:02;20.00;50.90
16032;DHT22;8120;48.308;8.914;2023-09-19T15:53:42;19.90;51.20
16032;DHT22;8120;48.308;8.914;2023-09-19T15:56:10;19.90;51.80
16032;DHT22;8120;48.308;8.914;2023-09-19T15:58:40;19.80;51.30
16032;DHT22;8120;48.308;8.914;2023-09-19T16:01:10;19.90;51.50
16032;DHT22;8120;48.308;8.914;2023-09-19T16:03:39;19.80;51.50
16032;DHT22;8120;48.308;8.914;2023-09-19T16:06:08;19.80;51.80
16032;DHT22;8120;48.308;8.914;2023-09-19T16:08:39;19.80;52.70
16032;DHT22;8120;48.308;8.914;2023-09-19T16:11:08;19.80;52.80
16032;DHT22;8120;48.308;8.914;2023-09-19T16:13:36;19.70;52.80
16032;DHT22;8120;48.308;8.914;2023-09-19T16:16:05;19.60;53.40
16032;DHT22;8120;48.308;8.914;2023-09-19T16:18:36;19.50;54.40